那覇空港の過去48時間の天気

那覇空港 (Naha)

現在時刻: 8/4 05:58 JST (8/3 20:58 UTC) 以下の時間は現地時間です。

過去48時間のMETAR気象情報
時間 風向 風速(m/s) 視程 気温(℃) 湿度(%) 気圧(hPa) 天気現象
4 05:30 南東 4 10km以上 28 89 1010
4 05:00 南東 3 10km以上 28 89 1010
4 04:30 南東 3 10km以上 28 89 1010 周辺でしゅう雨
4 04:00 南南東 3 10km以上 28 89 1010
4 03:30 南東 3 10km以上 27 94 1010
4 03:00 南東 4 10km以上 27 89 1010 周辺でしゅう雨
4 02:30 南南東 5 10km以上 27 89 1010 弱いしゅう雨
4 02:00 4 10km以上 27 89 1010 弱いしゅう雨
4 01:30 南東 4 9000m 29 89 1010 弱いしゅう雨
4 01:00 南南東 4 10km以上 29 89 1011 周辺でしゅう雨
4 00:30 南南東 4 10km以上 28 89 1011 弱いしゅう雨
4 00:00 南東 5 10km以上 29 84 1011 弱いしゅう雨
3 23:30 南東 4 10km以上 28 89 1011
3 23:00 南南東 6 10km以上 28 89 1011 弱いしゅう雨
3 22:48 南東 6 10km以上 29 84 1011 しゅう雨
3 22:30 南東 5 10km以上 29 89 1011 弱いしゅう雨
3 22:00 南東 5 10km以上 29 89 1011
3 21:30 南東 6 10km以上 29 84 1011 周辺でしゅう雨
3 21:00 南東 5 10km以上 29 84 1011 周辺でしゅう雨
3 20:30 南東 6 10km以上 30 79 1011 周辺でしゅう雨
3 20:00 南東 5 10km以上 30 84 1010 弱いしゅう雨
3 19:30 南東 5 10km以上 30 79 1010
3 19:00 南東 7 10km以上 30 79 1009
3 18:30 南東 7 10km以上 30 79 1009
3 18:00 南東 7 10km以上 31 70 1009 周辺でしゅう雨
3 17:30 南南東 8 10km以上 31 75 1009
3 17:00 南東 8 10km以上 31 75 1009
3 16:30 南南東 9 10km以上 32 71 1009
3 16:00 南東 7 10km以上 32 67 1009
3 15:30 南南東 9 10km以上 32 67 1009
3 15:00 南南東 8 10km以上 32 67 1009
3 14:30 南東 10 10km以上 32 67 1009
3 14:00 南南東 10 10km以上 32 71 1009
3 13:30 南南東 10 10km以上 33 67 1009
3 13:00 南東 9 10km以上 33 63 1009
3 12:30 南南東 9 10km以上 33 67 1010
3 12:00 南東 9 10km以上 32 75 1010
3 11:30 南東 10 10km以上 32 71 1010
3 11:00 南東 9 10km以上 32 71 1010
3 10:30 東南東 9 10km以上 32 67 1010
3 10:00 東南東 9 10km以上 32 67 1010
3 09:30 南東 8 10km以上 31 75 1010
3 09:00 東南東 8 10km以上 31 79 1010
3 08:30 南東 8 10km以上 31 75 1010
3 08:00 東南東 7 10km以上 30 79 1009
3 07:30 東南東 7 10km以上 30 79 1009
3 07:00 東南東 7 10km以上 29 84 1009
3 06:30 南東 6 10km以上 29 84 1009
3 06:00 南東 7 10km以上 29 79 1009
3 05:30 南東 6 10km以上 29 84 1009
3 05:00 南東 7 10km以上 29 84 1008
3 04:30 南東 6 10km以上 29 84 1008
3 04:00 南東 7 10km以上 29 84 1008
3 03:30 南東 8 10km以上 29 84 1008
3 03:00 東南東 8 10km以上 29 84 1008
3 02:30 南東 7 10km以上 29 84 1008
3 02:00 南東 7 10km以上 29 84 1009
3 01:30 南東 7 10km以上 29 84 1009
3 01:00 東南東 6 10km以上 29 84 1010
3 00:30 東南東 7 10km以上 29 84 1010
3 00:00 東南東 7 10km以上 29 84 1010
2 23:30 東南東 6 10km以上 29 84 1010
2 23:00 東南東 6 10km以上 29 84 1010
2 22:30 東南東 7 10km以上 29 84 1010
2 22:00 東南東 6 10km以上 29 84 1010
2 21:30 東南東 6 10km以上 29 84 1010
2 21:00 東南東 6 10km以上 29 79 1010
2 20:30 東南東 6 10km以上 29 84 1010 弱いしゅう雨
2 20:00 東南東 6 10km以上 29 84 1010
2 19:30 東南東 6 10km以上 29 84 1010
2 19:00 東南東 6 10km以上 30 79 1009
2 18:30 南東 7 10km以上 30 75 1009
2 18:00 南東 6 10km以上 30 70 1010
2 17:30 南東 7 10km以上 30 75 1010
2 17:00 南東 8 10km以上 31 70 1009
2 16:30 南東 7 10km以上 31 75 1009
2 16:00 南東 8 10km以上 31 75 1010
2 15:30 南東 9 10km以上 32 67 1010
2 15:00 東南東 9 10km以上 32 71 1010
2 14:30 南東 9 10km以上 32 71 1010
2 14:00 南東 8 10km以上 33 67 1010
2 13:30 南東 9 10km以上 32 71 1010
2 13:00 南東 9 10km以上 32 71 1010
2 12:30 南東 8 10km以上 32 71 1010
2 12:12 東南東 10 10km以上 32 71 1010
2 12:00 東南東 10 10km以上 32 71 1010
2 11:30 東南東 9 10km以上 33 67 1010
2 11:00 南東 8 10km以上 32 71 1011
2 10:30 東南東 8 10km以上 32 67 1011 周辺でしゅう雨
2 10:00 東南東 7 10km以上 31 75 1010 弱いしゅう雨
2 09:44 南東 7 10km以上 30 79 1011 弱いしゅう雨
2 09:30 東南東 7 10km以上 30 79 1011 しゅう雨
2 09:18 東南東 8 10km以上 31 75 1011 弱いしゅう雨
2 09:08 東南東 7 10km以上 31 75 1011 しゅう雨
2 09:00 東南東 7 10km以上 31 75 1011 弱いしゅう雨
2 08:30 東南東 7 10km以上 30 79 1011 弱いしゅう雨
2 08:00 東南東 6 10km以上 30 79 1011
2 07:30 4 10km以上 29 84 1010
2 07:00 東南東 4 10km以上 29 84 1010
2 06:30 東南東 4 10km以上 29 84 1010 周辺でしゅう雨
2 06:00 東南東 5 10km以上 28 89 1010
ROAH 032030Z 14008KT 9999 FEW015 BKN/// 28/26 Q1010 RMK 1CU015 A2983
ROAH 032000Z 13005KT 9999 FEW015 BKN/// 28/26 Q1010
ROAH 031930Z 13006KT 9999 VCSH FEW015 BKN/// 28/26 Q1010 RMK 1CU015 A2982
ROAH 031900Z 15005KT 9999 FEW015 BKN/// 28/26 Q1010 RMK 1CU015 A2983
ROAH 031830Z 14005KT 9999 FEW010 BKN/// 27/26 Q1010
ROAH 031800Z 14007KT 9999 VCSH FEW010 BKN/// 27/25 Q1010
ROAH 031730Z 15010KT 9999 -SHRA FEW009 SCT012 BKN/// 27/25 Q1010
ROAH 031700Z 18008KT 9999 -SHRA FEW009 SCT012 BKN/// 27/25 Q1010 RMK 1CU009 4CU012 A2983
ROAH 031630Z 14007KT 9000 -SHRA FEW005 SCT010 BKN/// 29/27 Q1010 RMK 1ST005 3CU010 A2984
ROAH 031600Z 16007KT 9999 VCSH FEW009 SCT012 BKN/// 29/27 Q1011
ROAH 031530Z 15007KT 9999 -SHRA FEW010 SCT012 BKN/// 28/26 Q1011
ROAH 031500Z 14009KT 9999 -SHRA FEW012 SCT015 BKN/// 29/26 Q1011
ROAH 031430Z 14008KT 9999 FEW012 FEW020CB BKN/// 28/26 Q1011 RMK 1CU012 1CB020 A2987 CB SE
ROAH 031400Z 15011KT 9999 -SHRA FEW012 FEW020TCU BKN/// 28/26 Q1011 RMK 1CU012 1TCU020 A2987 TCU 15KM W-NW MOV NW
ROAH 031348Z 14012KT 9999 SHRA FEW010 SCT015 BKN025 29/26 Q1011 RMK 1CU010 4CU015 6CU025 A2987
ROAH 031330Z 14010KT 9999 -SHRA FEW012 BKN/// 29/27 Q1011
ROAH 031300Z 14010KT 9999 FEW014 FEW020CB BKN/// 29/27 Q1011 RMK 1CU014 1CB020 A2987 CB 25KM SE AND W MOV NW
ROAH 031230Z 14011KT 9999 VCSH FEW014 FEW020CB BKN/// 29/26 Q1011
ROAH 031200Z 13010KT 9999 VCSH FEW014 BKN/// 29/26 Q1011 RMK 1CU014 A2987
ROAH 031130Z 14011KT 9999 VCSH FEW014 BKN/// 30/26 Q1011
ROAH 031100Z 14010KT 100V230 9999 -SHRA SCT014 BKN/// 30/27 Q1010 RMK 3CU014 A2984
ROAH 031030Z 14010KT 9999 FEW015 BKN/// 30/26 Q1010
ROAH 031000Z 13013KT 9999 FEW016 BKN/// 30/26 Q1009 RMK 2CU016 A2982
ROAH 030930Z 14013KT 9999 SCT019 BKN/// 30/26 Q1009
ROAH 030900Z 14013KT 9999 VCSH SCT020 BKN/// 31/25 Q1009 RMK 3CU020 A2981
ROAH 030830Z 16015KT 9999 SCT020 BKN/// 31/26 Q1009
ROAH 030800Z 14016KT 9999 FEW020 BKN/// 31/26 Q1009 RMK 2CU020 A2980
ROAH 030730Z 15018KT 9999 FEW023 BKN/// 32/26 Q1009
ROAH 030700Z 14014KT 120V180 9999 FEW023 BKN/// 32/25 Q1009 RMK 2CU023 A2981
ROAH 030630Z 16018KT 9999 FEW023 BKN/// 32/25 Q1009 RMK 2CU023 A2981
ROAH 030600Z 15016KT 9999 SCT023 BKN/// 32/25 Q1009 RMK 3CU023 A2982
ROAH 030530Z 14019KT 9999 FEW018 BKN/// 32/25 Q1009
ROAH 030500Z 16019KT 9999 SCT022 BKN/// 32/26 Q1009 RMK 3CU022 A2982
ROAH 030430Z 16020KT 9999 FEW022 BKN/// 33/26 Q1009
ROAH 030400Z 14017KT 9999 FEW022 BKN/// 33/25 Q1009 RMK 2CU022 A2982
ROAH 030330Z 15018KT 110V170 9999 SCT020 BKN/// 33/26 Q1010
ROAH 030300Z 14017KT 9999 SCT020 BKN/// 32/27 Q1010 RMK 4CU020 A2983
ROAH 030230Z 14019KT 9999 SCT022 BKN/// 32/26 Q1010
ROAH 030200Z 13017KT 9999 SCT022 BKN/// 32/26 Q1010 RMK 3CU022 A2983
ROAH 030130Z 12018KT 9999 SCT020 BKN/// 32/25 Q1010 RMK 4CU020 A2983
ROAH 030100Z 12017KT 9999 BKN020 32/25 Q1010 RMK 5CU020 A2982
ROAH 030030Z 13016KT 9999 BKN019 31/26 Q1010 RMK 5CU019 A2982
ROAH 030000Z 12016KT 090V160 9999 BKN019 31/27 Q1010 RMK 5CU019 A2982
ROAH 022330Z 13016KT 9999 SCT019 SCT/// 31/26 Q1010
ROAH 022300Z 12014KT 9999 FEW017 SCT/// 30/26 Q1009 RMK 2CU017 A2981
ROAH 022230Z 12014KT 9999 FEW015 SCT/// 30/26 Q1009
ROAH 022200Z 12013KT 9999 FEW015 SCT/// 29/26 Q1009 RMK 1CU015 A2982
ROAH 022130Z 13012KT 9999 FEW015 SCT/// 29/26 Q1009 RMK 1CU015 A2980
ROAH 022100Z 13013KT 9999 FEW015 SCT/// 29/25 Q1009
ROAH 022030Z 13012KT 9999 FEW015 29/26 Q1009 RMK 1CU015 A2979
ROAH 022000Z 13013KT 9999 FEW015 29/26 Q1008 RMK 1CU015 A2979
ROAH 021930Z 14011KT 9999 FEW015 29/26 Q1008 RMK 1CU015 A2979
ROAH 021900Z 13013KT 9999 FEW016 29/26 Q1008 RMK 1CU016 A2979
ROAH 021830Z 13015KT 9999 FEW017 29/26 Q1008 RMK 1CU017 A2979
ROAH 021800Z 12015KT 9999 FEW017 SCT/// 29/26 Q1008
ROAH 021730Z 13013KT 9999 FEW017 SCT/// 29/26 Q1008
ROAH 021700Z 13013KT 9999 FEW015 BKN/// 29/26 Q1009 RMK 1CU015 A2980
ROAH 021630Z 13013KT 9999 FEW015 BKN/// 29/26 Q1009
ROAH 021600Z 12012KT 9999 FEW015 BKN/// 29/26 Q1010 RMK 1CU015 A2983
ROAH 021530Z 12013KT 9999 FEW015 BKN/// 29/26 Q1010
ROAH 021500Z 12013KT 9999 FEW015 BKN/// 29/26 Q1010 RMK 1CU015 A2983
ROAH 021430Z 12012KT 9999 FEW015 BKN/// 29/26 Q1010
ROAH 021400Z 12012KT 9999 FEW015 BKN/// 29/26 Q1010 RMK 2CU015 A2984
ROAH 021330Z 12013KT 9999 FEW015 BKN/// 29/26 Q1010
ROAH 021300Z 12012KT 9999 FEW015 BKN/// 29/26 Q1010 RMK 1CU015 A2984
ROAH 021230Z 12012KT 9999 FEW015 BKN/// 29/26 Q1010
ROAH 021200Z 12011KT 9999 FEW015 BKN/// 29/25 Q1010 RMK 1CU015 A2984
ROAH 021130Z 12011KT 9999 -SHRA FEW015 BKN/// 29/26 Q1010
ROAH 021100Z 12012KT 090V200 9999 FEW015 BKN/// 29/26 Q1010
ROAH 021030Z 11011KT 9999 FEW020 BKN/// 29/26 Q1010
ROAH 021000Z 12012KT 9999 FEW020 BKN/// 30/26 Q1009
ROAH 020930Z 13013KT 9999 FEW020 BKN/// 30/25 Q1009
ROAH 020900Z 14012KT 9999 FEW018 FEW025TCU BKN/// 30/24 Q1010
ROAH 020830Z 13013KT 100V170 9999 FEW018 BKN/// 30/25 Q1010
ROAH 020800Z 14015KT 9999 FEW018 BKN/// 31/25 Q1009 RMK 1CU018 A2982
ROAH 020730Z 14013KT 9999 SCT018 BKN/// 31/26 Q1009 RMK 3CU018 A2982
ROAH 020700Z 13016KT 9999 BKN018 BKN/// 31/26 Q1010 RMK 5CU018 A2982
ROAH 020630Z 14018KT 9999 FEW020 SCT025 BKN/// 32/25 Q1010 RMK 1CU020 3CU025 A2982
ROAH 020600Z 12017KT 9999 FEW023 SCT030 BKN/// 32/26 Q1010 RMK 1CU023 3CU030 A2983
ROAH 020530Z 13018KT 9999 SCT023 BKN/// 32/26 Q1010 RMK 3CU023 A2984
ROAH 020500Z 13015KT 090V160 9999 FEW023 BKN/// 33/26 Q1010 RMK 2CU023 A2984
ROAH 020430Z 13018KT 9999 FEW015 SCT023 BKN/// 32/26 Q1010
ROAH 020400Z 13017KT 9999 FEW015 SCT020 BKN/// 32/26 Q1010
ROAH 020330Z 14016KT 9999 FEW015 SCT020 BKN/// 32/26 Q1010
ROAH 020312Z 12019G33KT 9999 FEW015 SCT020 BKN/// 32/26 Q1010 RMK 1CU015 3CU020 A2984
ROAH 020300Z 12020KT 9999 FEW015 SCT020 BKN/// 32/26 Q1010 RMK 1CU015 3CU020 A2984
ROAH 020230Z 12018KT 9999 FEW015 SCT020 BKN/// 33/26 Q1010
ROAH 020200Z 13016KT 9999 FEW012 SCT020 FEW025TCU BKN/// 32/26 Q1011 RMK 1CU012 3CU020 1TCU025 A2985 TCU 25KM N MOV NW
ROAH 020130Z 12015KT 9999 VCSH FEW012 BKN/// 32/25 Q1011 RMK 1CU012 A2986
ROAH 020100Z 12013KT 9999 -SHRA FEW015 SCT020 BKN/// 31/26 Q1010
ROAH 020044Z 13013KT 9999 -SHRA FEW015 SCT020 FEW025TCU BKN/// 30/26 Q1011 RMK 1CU015 3CU020 1TCU025 A2986 TCU 10KM N AND S MOV NW
ROAH 020030Z 12013KT 9999 SHRA FEW015 SCT020 FEW025TCU BKN/// 30/26 Q1011 RMK 1CU015 3CU020 1TCU025 A2985 TCU 5KM E AND 20KM SE MOV NW
ROAH 020018Z 12015KT 9999 -SHRA FEW015 SCT020 BKN/// 31/26 Q1011 RMK 1CU015 4CU020 A2986
ROAH 020008Z 11013KT 9999 SHRA FEW015 SCT020 FEW025TCU BKN/// 31/26 Q1011 RMK 1CU015 4CU020 2TCU025 A2986 4000N TCU 4KM N MOV NW
ROAH 020000Z 12014KT 9999 -SHRA FEW015 SCT020 FEW025TCU BKN/// 31/26 Q1011 RMK 1CU015 4CU020 2TCU025 A2986 TCU 4KM E AND 16KM W MOV NW
ROAH 012330Z 11013KT 9999 -SHRA FEW015 FEW025TCU BKN/// 30/26 Q1011
ROAH 012300Z 11011KT 9999 FEW015 SCT020 BKN/// 30/26 Q1011 RMK 1CU015 3CU020 A2986
ROAH 012230Z 10008KT 9999 FEW015 BKN/// 29/26 Q1010
ROAH 012200Z 11007KT 9999 FEW015 BKN/// 29/26 Q1010
ROAH 012130Z 12007KT 080V140 9999 VCSH FEW015 BKN/// 29/26 Q1010 RMK 2CU015 A2985
ROAH 012100Z 12009KT 9999 FEW015 BKN/// 28/26 Q1010 RMK 1CU015 A2984